Terminal Aerodrome Forecast
Issued by NWS Shreveport, LA

Home | Current Version | Previous Version | Text Only | Print | Product List | Glossary On
Versions: 1 2 3 4 5 6 7 8 9 10 11 12 13 14 15 16 17 18 19 20
930
FTUS44 KSHV 180520
TAFGGG
TAF
KGGG 180520Z 1806/1906 04007KT P6SM OVC011
      TEMPO 1808/1812 OVC007
     FM181200 08007KT 4SM -DZ BR OVC003
     FM181600 12008KT 6SM -DZ BR OVC003
     FM181900 16010KT P6SM BKN007
     FM190000 15011KT 4SM BR OVC003=

USA.gov is the U.S. government's official web portal to all federal, state and local government web resources and services.